Delta Virtual Airport Information Service

Miami International Airport

ICAO: KMIA Country: United States
Latitude: 25.7932 Longitude: -80.2905
Latest Arrival : UPS2324 (KSDF-KMIA) Latest Departure : UPS9746 (A) (KMIA-KATL)


WX CaptureLIVE
Data provided by noaa.gov | Fetched at 10:52:58

METAR : KMIA 151453Z 22007KT 180V240 10SM FEW020 SCT170 BKN230 31/24 A3005 RMK AO2 SLP174 T03060239 51006

TAF : KMIA 151446Z 1515/1618 21010KT P6SM SCT025 SCT150 FM151700 22011KT P6SM VCTS SCT025CB BKN050 TEMPO 1518/1521 3SM TSRA BKN025CB FM160100 VRB04KT P6SM VCSH SCT035 BKN200 PROB30 1615/1618 5SM TSRA BKN025CB


Runway Data for KMIA
Data provided by openaviationdata.com

Runway ID Mag Var Hdg Length Elevation Surface ILS Freq ILS Id ILS Slope
08L -5 92° 8595 ft 8 ft Concrete 109.3 IROY 0
08R -5 92° 10498 ft 8 ft Asphalt 110.3 IMFA 3
9 -5 92° 12994 ft 8 ft Concrete 110.9 IBUL 3
12 -5 124° 9357 ft 8 ft Concrete 108.9 IGEM 3
26L -5 272° 10498 ft 8 ft Asphalt 109.1 IVIN 3
26R -5 272° 8595 ft 8 ft Concrete 109.3 ICNV 0
27 -5 272° 12994 ft 8 ft Concrete 109.5 IMIA 3
30 -5 304° 9357 ft 8 ft Concrete 111.7 IDCX 3

Miami International Airport, United States
Use only for reference purposes



Not for navigational purposes.